sensor_id;sensor_type;location;lat;lon;timestamp;pressure;altitude;pressure_sealevel;temperature;humidity
72118;BME280;59992;47.490;8.736;2023-01-26T00:02:08;97019.72;;;0.94;80.39
72118;BME280;59992;47.490;8.736;2023-01-26T00:04:37;97018.11;;;0.93;80.60
72118;BME280;59992;47.490;8.736;2023-01-26T00:07:07;97014.45;;;0.97;80.25
72118;BME280;59992;47.490;8.736;2023-01-26T00:09:36;97012.73;;;0.99;80.04
72118;BME280;59992;47.490;8.736;2023-01-26T00:12:07;97012.21;;;1.02;80.02
72118;BME280;59992;47.490;8.736;2023-01-26T00:14:36;97009.84;;;1.01;79.66
72118;BME280;59992;47.490;8.736;2023-01-26T00:17:22;97005.54;;;0.99;79.73
72118;BME280;59992;47.490;8.736;2023-01-26T00:19:56;97001.75;;;0.97;79.88
72118;BME280;59992;47.490;8.736;2023-01-26T00:22:26;97003.84;;;0.98;79.89
72118;BME280;59992;47.490;8.736;2023-01-26T00:24:56;96997.41;;;0.97;79.88
72118;BME280;59992;47.490;8.736;2023-01-26T00:27:26;96993.89;;;0.96;79.79
72118;BME280;59992;47.490;8.736;2023-01-26T00:29:55;96990.23;;;0.93;79.54
72118;BME280;59992;47.490;8.736;2023-01-26T00:32:25;96991.84;;;0.90;79.48
72118;BME280;59992;47.490;8.736;2023-01-26T00:34:54;96994.79;;;0.89;79.84
72118;BME280;59992;47.490;8.736;2023-01-26T00:37:24;96996.11;;;0.88;79.46
72118;BME280;59992;47.490;8.736;2023-01-26T00:39:54;97001.88;;;0.86;79.50
72118;BME280;59992;47.490;8.736;2023-01-26T00:42:23;97001.05;;;0.83;79.73
72118;BME280;59992;47.490;8.736;2023-01-26T00:44:53;96996.22;;;0.81;79.51
72118;BME280;59992;47.490;8.736;2023-01-26T00:47:23;96991.59;;;0.81;79.63
72118;BME280;59992;47.490;8.736;2023-01-26T00:49:52;96991.96;;;0.80;79.78
72118;BME280;59992;47.490;8.736;2023-01-26T00:52:22;96996.31;;;0.79;79.70
72118;BME280;59992;47.490;8.736;2023-01-26T00:54:51;96998.48;;;0.81;79.85
72118;BME280;59992;47.490;8.736;2023-01-26T00:57:20;96995.34;;;0.80;79.80
72118;BME280;59992;47.490;8.736;2023-01-26T00:59:50;96994.14;;;0.81;79.76
72118;BME280;59992;47.490;8.736;2023-01-26T01:02:20;96990.29;;;0.81;79.46
72118;BME280;59992;47.490;8.736;2023-01-26T01:04:50;96990.80;;;0.78;79.38
72118;BME280;59992;47.490;8.736;2023-01-26T01:07:19;96990.00;;;0.76;79.32
72118;BME280;59992;47.490;8.736;2023-01-26T01:09:49;96990.46;;;0.73;79.35
72118;BME280;59992;47.490;8.736;2023-01-26T01:12:18;96987.48;;;0.70;79.42
72118;BME280;59992;47.490;8.736;2023-01-26T01:14:48;96985.33;;;0.68;79.73
72118;BME280;59992;47.490;8.736;2023-01-26T01:17:17;96990.76;;;0.69;79.59
72118;BME280;59992;47.490;8.736;2023-01-26T01:19:47;96991.55;;;0.65;79.94
72118;BME280;59992;47.490;8.736;2023-01-26T01:22:17;96989.34;;;0.63;80.87
72118;BME280;59992;47.490;8.736;2023-01-26T01:24:47;96984.28;;;0.63;81.17
72118;BME280;59992;47.490;8.736;2023-01-26T01:27:16;96980.90;;;0.65;81.25
72118;BME280;59992;47.490;8.736;2023-01-26T01:29:46;96980.71;;;0.70;80.46
72118;BME280;59992;47.490;8.736;2023-01-26T01:32:15;96982.88;;;0.72;80.07
72118;BME280;59992;47.490;8.736;2023-01-26T01:34:46;96983.31;;;0.73;79.68
72118;BME280;59992;47.490;8.736;2023-01-26T01:37:17;96983.21;;;0.73;79.63
72118;BME280;59992;47.490;8.736;2023-01-26T01:39:46;96981.02;;;0.74;79.40
72118;BME280;59992;47.490;8.736;2023-01-26T01:42:17;96978.69;;;0.72;79.36
72118;BME280;59992;47.490;8.736;2023-01-26T01:47:58;96972.07;;;0.66;79.61
72118;BME280;59992;47.490;8.736;2023-01-26T01:50:32;96970.20;;;0.63;79.88
72118;BME280;59992;47.490;8.736;2023-01-26T01:53:04;96966.80;;;0.63;80.11
72118;BME280;59992;47.490;8.736;2023-01-26T01:55:37;96966.30;;;0.64;81.10
72118;BME280;59992;47.490;8.736;2023-01-26T01:58:07;96965.38;;;0.63;81.04
72118;BME280;59992;47.490;8.736;2023-01-26T02:00:36;96967.23;;;0.65;81.06
72118;BME280;59992;47.490;8.736;2023-01-26T02:03:08;96968.17;;;0.65;80.83
72118;BME280;59992;47.490;8.736;2023-01-26T02:05:50;96964.96;;;0.66;80.86
72118;BME280;59992;47.490;8.736;2023-01-26T02:08:23;96961.42;;;0.69;80.83
72118;BME280;59992;47.490;8.736;2023-01-26T02:10:55;96958.21;;;0.71;80.69
72118;BME280;59992;47.490;8.736;2023-01-26T02:13:27;96959.34;;;0.72;80.20
72118;BME280;59992;47.490;8.736;2023-01-26T02:16:00;96953.73;;;0.74;79.96
72118;BME280;59992;47.490;8.736;2023-01-26T02:18:29;96953.50;;;0.77;79.73
72118;BME280;59992;47.490;8.736;2023-01-26T02:21:01;96949.91;;;0.74;78.77
72118;BME280;59992;47.490;8.736;2023-01-26T02:23:41;96945.31;;;0.68;78.57
72118;BME280;59992;47.490;8.736;2023-01-26T02:26:16;96943.74;;;0.63;78.74
72118;BME280;59992;47.490;8.736;2023-01-26T02:28:47;96942.92;;;0.59;78.90
72118;BME280;59992;47.490;8.736;2023-01-26T02:31:18;96944.59;;;0.55;78.89
72118;BME280;59992;47.490;8.736;2023-01-26T02:33:47;96937.34;;;0.53;79.52
72118;BME280;59992;47.490;8.736;2023-01-26T02:36:20;96939.94;;;0.53;79.53
72118;BME280;59992;47.490;8.736;2023-01-26T02:38:57;96937.33;;;0.54;79.97
72118;BME280;59992;47.490;8.736;2023-01-26T02:41:28;96935.39;;;0.57;79.38
72118;BME280;59992;47.490;8.736;2023-01-26T02:44:15;96928.77;;;0.59;80.02
72118;BME280;59992;47.490;8.736;2023-01-26T02:46:45;96927.19;;;0.61;79.65
72118;BME280;59992;47.490;8.736;2023-01-26T02:49:15;96926.09;;;0.64;79.39
72118;BME280;59992;47.490;8.736;2023-01-26T02:52:02;96922.04;;;0.63;79.91
72118;BME280;59992;47.490;8.736;2023-01-26T02:54:32;96915.53;;;0.62;79.50
72118;BME280;59992;47.490;8.736;2023-01-26T02:57:15;96915.19;;;0.61;78.50
72118;BME280;59992;47.490;8.736;2023-01-26T02:59:45;96912.98;;;0.61;79.11
72118;BME280;59992;47.490;8.736;2023-01-26T03:02:15;96912.98;;;0.65;79.10
72118;BME280;59992;47.490;8.736;2023-01-26T03:04:45;96906.84;;;0.66;78.92
72118;BME280;59992;47.490;8.736;2023-01-26T03:07:15;96905.67;;;0.67;78.98
72118;BME280;59992;47.490;8.736;2023-01-26T03:09:45;96905.73;;;0.64;78.98
72118;BME280;59992;47.490;8.736;2023-01-26T03:12:14;96904.95;;;0.56;78.36
72118;BME280;59992;47.490;8.736;2023-01-26T03:14:44;96899.77;;;0.51;78.84
72118;BME280;59992;47.490;8.736;2023-01-26T03:17:14;96894.88;;;0.44;78.86
72118;BME280;59992;47.490;8.736;2023-01-26T03:19:43;96903.03;;;0.43;78.76
72118;BME280;59992;47.490;8.736;2023-01-26T03:22:30;96893.73;;;0.38;78.73
72118;BME280;59992;47.490;8.736;2023-01-26T03:25:17;96895.25;;;0.40;78.87
72118;BME280;59992;47.490;8.736;2023-01-26T03:28:04;96896.31;;;0.43;79.03
72118;BME280;59992;47.490;8.736;2023-01-26T03:30:33;96895.81;;;0.47;79.26
72118;BME280;59992;47.490;8.736;2023-01-26T03:33:03;96895.83;;;0.52;78.98
72118;BME280;59992;47.490;8.736;2023-01-26T03:35:32;96893.89;;;0.55;78.85
72118;BME280;59992;47.490;8.736;2023-01-26T03:38:02;96888.48;;;0.57;78.45
72118;BME280;59992;47.490;8.736;2023-01-26T03:40:32;96883.23;;;0.55;78.87
72118;BME280;59992;47.490;8.736;2023-01-26T03:43:19;96882.20;;;0.53;79.86
72118;BME280;59992;47.490;8.736;2023-01-26T03:46:07;96879.58;;;0.51;80.26
72118;BME280;59992;47.490;8.736;2023-01-26T03:48:55;96878.44;;;0.53;79.75
72118;BME280;59992;47.490;8.736;2023-01-26T03:51:42;96873.73;;;0.57;79.24
72118;BME280;59992;47.490;8.736;2023-01-26T03:54:30;96870.08;;;0.61;79.11
72118;BME280;59992;47.490;8.736;2023-01-26T03:57:17;96867.20;;;0.61;78.92
72118;BME280;59992;47.490;8.736;2023-01-26T03:59:47;96869.15;;;0.66;78.87
72118;BME280;59992;47.490;8.736;2023-01-26T04:02:17;96864.11;;;0.66;78.82
72118;BME280;59992;47.490;8.736;2023-01-26T04:05:04;96862.15;;;0.63;79.49
72118;BME280;59992;47.490;8.736;2023-01-26T04:07:52;96863.39;;;0.67;78.66
72118;BME280;59992;47.490;8.736;2023-01-26T04:10:40;96859.58;;;0.69;78.43
72118;BME280;59992;47.490;8.736;2023-01-26T04:13:10;96862.19;;;0.69;79.09
72118;BME280;59992;47.490;8.736;2023-01-26T04:15:57;96863.66;;;0.69;79.08
72118;BME280;59992;47.490;8.736;2023-01-26T04:18:45;96858.41;;;0.67;79.85
72118;BME280;59992;47.490;8.736;2023-01-26T04:21:32;96858.04;;;0.68;79.72
72118;BME280;59992;47.490;8.736;2023-01-26T04:24:05;96854.80;;;0.71;79.06
72118;BME280;59992;47.490;8.736;2023-01-26T04:26:39;96855.64;;;0.74;79.26
72118;BME280;59992;47.490;8.736;2023-01-26T04:29:14;96848.70;;;0.76;79.13
72118;BME280;59992;47.490;8.736;2023-01-26T04:31:44;96850.01;;;0.77;78.87
72118;BME280;59992;47.490;8.736;2023-01-26T04:34:14;96848.11;;;0.75;79.31
72118;BME280;59992;47.490;8.736;2023-01-26T04:36:44;96846.23;;;0.75;79.96
72118;BME280;59992;47.490;8.736;2023-01-26T04:39:13;96845.89;;;0.74;80.53
72118;BME280;59992;47.490;8.736;2023-01-26T04:41:43;96841.71;;;0.73;80.27
72118;BME280;59992;47.490;8.736;2023-01-26T04:44:14;96834.60;;;0.72;80.99
72118;BME280;59992;47.490;8.736;2023-01-26T04:46:44;96836.53;;;0.72;81.15
72118;BME280;59992;47.490;8.736;2023-01-26T04:49:15;96836.34;;;0.71;81.03
72118;BME280;59992;47.490;8.736;2023-01-26T04:51:45;96831.59;;;0.71;80.01
72118;BME280;59992;47.490;8.736;2023-01-26T04:54:14;96834.33;;;0.69;80.17
72118;BME280;59992;47.490;8.736;2023-01-26T04:56:44;96834.85;;;0.67;79.82
72118;BME280;59992;47.490;8.736;2023-01-26T04:59:13;96829.48;;;0.61;80.08
72118;BME280;59992;47.490;8.736;2023-01-26T05:01:43;96826.80;;;0.60;80.30
72118;BME280;59992;47.490;8.736;2023-01-26T05:04:13;96830.20;;;0.59;79.73
72118;BME280;59992;47.490;8.736;2023-01-26T05:06:43;96829.80;;;0.58;80.26
72118;BME280;59992;47.490;8.736;2023-01-26T05:09:12;96828.38;;;0.56;80.46
72118;BME280;59992;47.490;8.736;2023-01-26T05:11:43;96822.77;;;0.57;81.67
72118;BME280;59992;47.490;8.736;2023-01-26T05:14:13;96824.67;;;0.62;81.57
72118;BME280;59992;47.490;8.736;2023-01-26T05:16:43;96821.61;;;0.63;80.92
72118;BME280;59992;47.490;8.736;2023-01-26T05:19:13;96813.63;;;0.63;80.70
72118;BME280;59992;47.490;8.736;2023-01-26T05:21:43;96814.30;;;0.66;80.58
72118;BME280;59992;47.490;8.736;2023-01-26T05:24:12;96807.95;;;0.68;79.71
72118;BME280;59992;47.490;8.736;2023-01-26T05:26:43;96808.59;;;0.68;80.13
72118;BME280;59992;47.490;8.736;2023-01-26T05:29:13;96808.74;;;0.70;80.11
72118;BME280;59992;47.490;8.736;2023-01-26T05:31:43;96805.57;;;0.72;79.87
72118;BME280;59992;47.490;8.736;2023-01-26T05:34:13;96805.95;;;0.74;79.92
72118;BME280;59992;47.490;8.736;2023-01-26T05:36:42;96804.44;;;0.79;79.84
72118;BME280;59992;47.490;8.736;2023-01-26T05:39:12;96802.48;;;0.81;79.61
72118;BME280;59992;47.490;8.736;2023-01-26T05:41:42;96801.23;;;0.83;79.45
72118;BME280;59992;47.490;8.736;2023-01-26T05:44:13;96803.19;;;0.82;79.52
72118;BME280;59992;47.490;8.736;2023-01-26T05:46:43;96807.02;;;0.78;79.97
72118;BME280;59992;47.490;8.736;2023-01-26T05:49:13;96803.77;;;0.79;79.56
72118;BME280;59992;47.490;8.736;2023-01-26T05:51:42;96809.93;;;0.78;79.14
72118;BME280;59992;47.490;8.736;2023-01-26T05:54:12;96812.30;;;0.75;79.54
72118;BME280;59992;47.490;8.736;2023-01-26T05:57:00;96815.02;;;0.77;79.48
72118;BME280;59992;47.490;8.736;2023-01-26T05:59:31;96817.25;;;0.79;79.33
72118;BME280;59992;47.490;8.736;2023-01-26T06:02:01;96818.39;;;0.82;79.41
72118;BME280;59992;47.490;8.736;2023-01-26T06:04:31;96820.20;;;0.82;79.66
72118;BME280;59992;47.490;8.736;2023-01-26T06:07:01;96817.92;;;0.84;79.24
72118;BME280;59992;47.490;8.736;2023-01-26T06:09:31;96812.61;;;0.81;79.16
72118;BME280;59992;47.490;8.736;2023-01-26T06:12:00;96823.14;;;0.84;78.89
72118;BME280;59992;47.490;8.736;2023-01-26T06:14:30;96814.34;;;0.78;79.13
72118;BME280;59992;47.490;8.736;2023-01-26T06:17:00;96822.45;;;0.84;79.16
72118;BME280;59992;47.490;8.736;2023-01-26T06:19:29;96824.33;;;0.83;79.56
72118;BME280;59992;47.490;8.736;2023-01-26T06:21:59;96828.20;;;0.81;79.54
72118;BME280;59992;47.490;8.736;2023-01-26T06:24:28;96826.02;;;0.81;79.20
72118;BME280;59992;47.490;8.736;2023-01-26T06:26:58;96831.73;;;0.80;79.16
72118;BME280;59992;47.490;8.736;2023-01-26T06:29:28;96829.34;;;0.76;79.14
72118;BME280;59992;47.490;8.736;2023-01-26T06:31:58;96833.38;;;0.71;79.83
72118;BME280;59992;47.490;8.736;2023-01-26T06:34:27;96835.09;;;0.71;79.29
72118;BME280;59992;47.490;8.736;2023-01-26T06:36:57;96832.64;;;0.71;78.93
72118;BME280;59992;47.490;8.736;2023-01-26T06:39:27;96835.30;;;0.71;78.97
72118;BME280;59992;47.490;8.736;2023-01-26T06:41:56;96838.81;;;0.70;78.91
72118;BME280;59992;47.490;8.736;2023-01-26T06:44:26;96836.59;;;0.69;78.89
72118;BME280;59992;47.490;8.736;2023-01-26T06:46:58;96836.94;;;0.69;78.88
72118;BME280;59992;47.490;8.736;2023-01-26T06:49:28;96833.74;;;0.70;78.54
72118;BME280;59992;47.490;8.736;2023-01-26T06:52:02;96832.53;;;0.65;78.24
72118;BME280;59992;47.490;8.736;2023-01-26T06:54:32;96831.98;;;0.62;78.48
72118;BME280;59992;47.490;8.736;2023-01-26T06:57:02;96831.70;;;0.59;78.58
72118;BME280;59992;47.490;8.736;2023-01-26T06:59:31;96829.70;;;0.57;78.50
72118;BME280;59992;47.490;8.736;2023-01-26T07:02:02;96826.15;;;0.55;78.57
72118;BME280;59992;47.490;8.736;2023-01-26T07:04:31;96826.09;;;0.53;78.69
72118;BME280;59992;47.490;8.736;2023-01-26T07:07:01;96825.50;;;0.51;79.46
72118;BME280;59992;47.490;8.736;2023-01-26T07:09:31;96823.69;;;0.53;78.92
72118;BME280;59992;47.490;8.736;2023-01-26T07:12:01;96825.95;;;0.54;78.70
72118;BME280;59992;47.490;8.736;2023-01-26T07:14:33;96819.77;;;0.53;78.89
72118;BME280;59992;47.490;8.736;2023-01-26T07:17:03;96811.89;;;0.48;78.64
72118;BME280;59992;47.490;8.736;2023-01-26T07:19:33;96818.46;;;0.51;78.69
72118;BME280;59992;47.490;8.736;2023-01-26T07:22:02;96820.99;;;0.47;79.01
72118;BME280;59992;47.490;8.736;2023-01-26T07:24:32;96820.26;;;0.47;79.12
72118;BME280;59992;47.490;8.736;2023-01-26T07:27:02;96826.06;;;0.46;78.93
72118;BME280;59992;47.490;8.736;2023-01-26T07:29:32;96828.02;;;0.43;78.91
72118;BME280;59992;47.490;8.736;2023-01-26T07:32:03;96827.97;;;0.44;78.88
72118;BME280;59992;47.490;8.736;2023-01-26T07:34:33;96828.95;;;0.45;78.83
72118;BME280;59992;47.490;8.736;2023-01-26T07:37:04;96831.11;;;0.46;78.83
72118;BME280;59992;47.490;8.736;2023-01-26T07:39:33;96829.04;;;0.45;78.87
72118;BME280;59992;47.490;8.736;2023-01-26T07:42:03;96829.35;;;0.45;78.82
72118;BME280;59992;47.490;8.736;2023-01-26T07:44:33;96827.47;;;0.45;78.70
72118;BME280;59992;47.490;8.736;2023-01-26T07:47:03;96823.36;;;0.45;78.86
72118;BME280;59992;47.490;8.736;2023-01-26T07:49:33;96829.15;;;0.45;78.65
72118;BME280;59992;47.490;8.736;2023-01-26T07:52:02;96825.77;;;0.45;78.62
72118;BME280;59992;47.490;8.736;2023-01-26T07:54:33;96820.82;;;0.45;78.43
72118;BME280;59992;47.490;8.736;2023-01-26T07:57:02;96819.81;;;0.45;78.55
72118;BME280;59992;47.490;8.736;2023-01-26T07:59:34;96820.48;;;0.46;78.82
72118;BME280;59992;47.490;8.736;2023-01-26T08:02:03;96819.43;;;0.49;79.02
72118;BME280;59992;47.490;8.736;2023-01-26T08:04:35;96821.35;;;0.55;78.76
72118;BME280;59992;47.490;8.736;2023-01-26T08:07:05;96820.84;;;0.57;78.86
72118;BME280;59992;47.490;8.736;2023-01-26T08:09:36;96821.92;;;0.58;78.08
72118;BME280;59992;47.490;8.736;2023-01-26T08:12:05;96821.31;;;0.58;78.34
72118;BME280;59992;47.490;8.736;2023-01-26T08:14:35;96823.13;;;0.58;78.31
72118;BME280;59992;47.490;8.736;2023-01-26T08:17:05;96824.02;;;0.60;78.31
72118;BME280;59992;47.490;8.736;2023-01-26T08:19:34;96822.02;;;0.61;78.30
72118;BME280;59992;47.490;8.736;2023-01-26T08:22:04;96824.44;;;0.63;78.45
72118;BME280;59992;47.490;8.736;2023-01-26T08:24:34;96824.78;;;0.64;78.80
72118;BME280;59992;47.490;8.736;2023-01-26T08:27:04;96823.64;;;0.66;78.06
72118;BME280;59992;47.490;8.736;2023-01-26T08:29:33;96823.80;;;0.64;77.82
72118;BME280;59992;47.490;8.736;2023-01-26T08:32:04;96823.95;;;0.66;77.79
72118;BME280;59992;47.490;8.736;2023-01-26T08:34:35;96828.32;;;0.64;77.50
72118;BME280;59992;47.490;8.736;2023-01-26T08:37:04;96828.53;;;0.64;77.74
72118;BME280;59992;47.490;8.736;2023-01-26T08:39:34;96827.55;;;0.67;77.88
72118;BME280;59992;47.490;8.736;2023-01-26T08:42:03;96824.55;;;0.68;77.66
72118;BME280;59992;47.490;8.736;2023-01-26T08:44:33;96826.71;;;0.69;77.82
72118;BME280;59992;47.490;8.736;2023-01-26T08:47:03;96825.34;;;0.70;77.69
72118;BME280;59992;47.490;8.736;2023-01-26T08:49:32;96825.30;;;0.67;77.54
72118;BME280;59992;47.490;8.736;2023-01-26T08:52:05;96825.94;;;0.69;77.24
72118;BME280;59992;47.490;8.736;2023-01-26T08:54:35;96821.34;;;0.69;77.84
72118;BME280;59992;47.490;8.736;2023-01-26T08:57:07;96818.89;;;0.72;77.54
72118;BME280;59992;47.490;8.736;2023-01-26T08:59:37;96818.73;;;0.74;77.80
72118;BME280;59992;47.490;8.736;2023-01-26T09:02:07;96821.17;;;0.75;77.59
72118;BME280;59992;47.490;8.736;2023-01-26T09:04:37;96816.91;;;0.77;77.48
72118;BME280;59992;47.490;8.736;2023-01-26T09:07:07;96816.38;;;0.78;77.17
72118;BME280;59992;47.490;8.736;2023-01-26T09:09:37;96815.63;;;0.73;77.06
72118;BME280;59992;47.490;8.736;2023-01-26T09:12:07;96809.90;;;0.72;77.06
72118;BME280;59992;47.490;8.736;2023-01-26T09:14:37;96814.42;;;0.71;77.26
72118;BME280;59992;47.490;8.736;2023-01-26T09:17:07;96817.90;;;0.72;77.19
72118;BME280;59992;47.490;8.736;2023-01-26T09:19:36;96806.27;;;0.63;77.34
72118;BME280;59992;47.490;8.736;2023-01-26T09:22:07;96815.70;;;0.69;77.45
72118;BME280;59992;47.490;8.736;2023-01-26T09:24:36;96813.81;;;0.69;77.17
72118;BME280;59992;47.490;8.736;2023-01-26T09:27:06;96817.36;;;0.70;76.96
72118;BME280;59992;47.490;8.736;2023-01-26T09:29:36;96820.47;;;0.71;77.01
72118;BME280;59992;47.490;8.736;2023-01-26T09:32:06;96819.67;;;0.69;76.92
72118;BME280;59992;47.490;8.736;2023-01-26T09:34:38;96822.84;;;0.70;77.03
72118;BME280;59992;47.490;8.736;2023-01-26T09:37:08;96825.35;;;0.67;76.59
72118;BME280;59992;47.490;8.736;2023-01-26T09:39:37;96827.64;;;0.64;76.55
72118;BME280;59992;47.490;8.736;2023-01-26T09:42:20;96829.34;;;0.63;76.50
72118;BME280;59992;47.490;8.736;2023-01-26T09:45:11;96828.46;;;0.60;76.12
72118;BME280;59992;47.490;8.736;2023-01-26T09:48:00;96828.08;;;0.61;76.72
72118;BME280;59992;47.490;8.736;2023-01-26T09:50:39;96824.18;;;0.65;76.22
72118;BME280;59992;47.490;8.736;2023-01-26T09:53:15;96824.44;;;0.68;76.44
72118;BME280;59992;47.490;8.736;2023-01-26T09:55:48;96820.73;;;0.71;76.44
72118;BME280;59992;47.490;8.736;2023-01-26T09:58:27;96821.02;;;0.72;75.92
72118;BME280;59992;47.490;8.736;2023-01-26T10:01:00;96822.80;;;0.72;75.91
72118;BME280;59992;47.490;8.736;2023-01-26T10:03:36;96820.66;;;0.72;75.69
72118;BME280;59992;47.490;8.736;2023-01-26T10:06:14;96821.96;;;0.69;75.87
72118;BME280;59992;47.490;8.736;2023-01-26T10:08:49;96819.55;;;0.70;75.58
72118;BME280;59992;47.490;8.736;2023-01-26T10:11:24;96819.65;;;0.70;75.78
72118;BME280;59992;47.490;8.736;2023-01-26T10:13:58;96820.70;;;0.67;75.84
72118;BME280;59992;47.490;8.736;2023-01-26T10:16:29;96813.45;;;0.75;76.18
72118;BME280;59992;47.490;8.736;2023-01-26T10:19:03;96816.97;;;0.79;75.81
72118;BME280;59992;47.490;8.736;2023-01-26T10:21:37;96820.08;;;0.83;76.07
72118;BME280;59992;47.490;8.736;2023-01-26T10:24:11;96813.23;;;0.84;75.51
72118;BME280;59992;47.490;8.736;2023-01-26T10:26:42;96811.27;;;0.85;75.16
72118;BME280;59992;47.490;8.736;2023-01-26T10:29:14;96806.66;;;0.88;75.10
72118;BME280;59992;47.490;8.736;2023-01-26T10:31:44;96806.42;;;0.88;75.11
72118;BME280;59992;47.490;8.736;2023-01-26T10:34:17;96802.41;;;0.93;75.40
72118;BME280;59992;47.490;8.736;2023-01-26T10:36:55;96800.12;;;0.95;75.17
72118;BME280;59992;47.490;8.736;2023-01-26T10:39:27;96801.38;;;0.91;75.09
72118;BME280;59992;47.490;8.736;2023-01-26T10:41:59;96799.88;;;0.91;75.32
72118;BME280;59992;47.490;8.736;2023-01-26T10:44:33;96802.08;;;0.96;75.06
72118;BME280;59992;47.490;8.736;2023-01-26T10:47:06;96799.17;;;0.98;75.25
72118;BME280;59992;47.490;8.736;2023-01-26T10:49:43;96797.96;;;1.06;75.72
72118;BME280;59992;47.490;8.736;2023-01-26T10:52:18;96796.04;;;1.15;75.80
72118;BME280;59992;47.490;8.736;2023-01-26T10:54:49;96793.60;;;1.16;74.03
72118;BME280;59992;47.490;8.736;2023-01-26T10:57:26;96796.05;;;1.15;74.68
72118;BME280;59992;47.490;8.736;2023-01-26T10:59:58;96790.77;;;1.15;74.96
72118;BME280;59992;47.490;8.736;2023-01-26T11:02:29;96787.63;;;1.18;74.26
72118;BME280;59992;47.490;8.736;2023-01-26T11:05:18;96789.94;;;1.15;74.66
72118;BME280;59992;47.490;8.736;2023-01-26T11:07:50;96787.50;;;1.17;74.29
72118;BME280;59992;47.490;8.736;2023-01-26T11:10:31;96783.26;;;1.14;73.78
72118;BME280;59992;47.490;8.736;2023-01-26T11:13:14;96788.73;;;1.10;74.43
72118;BME280;59992;47.490;8.736;2023-01-26T11:15:47;96785.56;;;1.14;74.38
72118;BME280;59992;47.490;8.736;2023-01-26T11:18:26;96784.52;;;1.17;73.79
72118;BME280;59992;47.490;8.736;2023-01-26T11:21:01;96787.14;;;1.20;74.04
72118;BME280;59992;47.490;8.736;2023-01-26T11:23:45;96786.61;;;1.21;73.78
72118;BME280;59992;47.490;8.736;2023-01-26T11:26:29;96786.83;;;1.21;73.18
72118;BME280;59992;47.490;8.736;2023-01-26T11:29:15;96788.40;;;1.25;74.67
72118;BME280;59992;47.490;8.736;2023-01-26T11:31:58;96779.47;;;1.23;74.31
72118;BME280;59992;47.490;8.736;2023-01-26T11:34:38;96782.27;;;1.28;73.58
72118;BME280;59992;47.490;8.736;2023-01-26T11:37:42;96779.39;;;1.28;72.96
72118;BME280;59992;47.490;8.736;2023-01-26T11:40:22;96780.75;;;1.29;72.80
72118;BME280;59992;47.490;8.736;2023-01-26T11:43:05;96780.02;;;1.24;72.72
72118;BME280;59992;47.490;8.736;2023-01-26T11:45:52;96774.27;;;1.19;72.94
72118;BME280;59992;47.490;8.736;2023-01-26T11:48:35;96774.86;;;1.19;73.46
72118;BME280;59992;47.490;8.736;2023-01-26T11:51:14;96781.51;;;1.20;73.65
72118;BME280;59992;47.490;8.736;2023-01-26T11:54:00;96776.39;;;1.14;73.96
72118;BME280;59992;47.490;8.736;2023-01-26T11:56:41;96774.13;;;1.19;74.14
72118;BME280;59992;47.490;8.736;2023-01-26T11:59:20;96772.52;;;1.24;74.38
72118;BME280;59992;47.490;8.736;2023-01-26T12:02:00;96774.36;;;1.28;74.91
72118;BME280;59992;47.490;8.736;2023-01-26T12:04:38;96769.66;;;1.29;74.41
72118;BME280;59992;47.490;8.736;2023-01-26T12:07:16;96766.68;;;1.32;74.12
72118;BME280;59992;47.490;8.736;2023-01-26T12:09:49;96750.92;;;1.27;73.83
72118;BME280;59992;47.490;8.736;2023-01-26T12:12:25;96758.23;;;1.33;73.59
72118;BME280;59992;47.490;8.736;2023-01-26T12:15:04;96754.43;;;1.31;73.41
72118;BME280;59992;47.490;8.736;2023-01-26T12:17:46;96749.73;;;1.27;72.96
72118;BME280;59992;47.490;8.736;2023-01-26T12:20:31;96745.57;;;1.24;73.03
72118;BME280;59992;47.490;8.736;2023-01-26T12:23:09;96742.64;;;1.19;73.64
72118;BME280;59992;47.490;8.736;2023-01-26T12:25:41;96747.45;;;1.18;73.96
72118;BME280;59992;47.490;8.736;2023-01-26T12:28:18;96745.38;;;1.16;73.67
72118;BME280;59992;47.490;8.736;2023-01-26T12:30:56;96744.20;;;1.13;73.67
72118;BME280;59992;47.490;8.736;2023-01-26T12:33:28;96739.00;;;1.12;73.27
72118;BME280;59992;47.490;8.736;2023-01-26T12:36:17;96736.50;;;1.11;73.39
72118;BME280;59992;47.490;8.736;2023-01-26T12:39:03;96733.52;;;1.02;73.58
72118;BME280;59992;47.490;8.736;2023-01-26T12:41:45;96731.13;;;1.04;73.32
72118;BME280;59992;47.490;8.736;2023-01-26T12:44:28;96740.58;;;1.08;73.19
72118;BME280;59992;47.490;8.736;2023-01-26T12:47:08;96734.52;;;1.02;73.33
72118;BME280;59992;47.490;8.736;2023-01-26T12:49:44;96741.17;;;1.04;73.50
72118;BME280;59992;47.490;8.736;2023-01-26T12:52:20;96739.98;;;1.00;73.23
72118;BME280;59992;47.490;8.736;2023-01-26T12:54:58;96736.64;;;0.95;72.70
72118;BME280;59992;47.490;8.736;2023-01-26T12:57:35;96738.65;;;0.94;73.19
72118;BME280;59992;47.490;8.736;2023-01-26T13:00:19;96736.19;;;0.92;73.39
72118;BME280;59992;47.490;8.736;2023-01-26T13:02:52;96735.20;;;0.91;73.46
72118;BME280;59992;47.490;8.736;2023-01-26T13:05:27;96732.80;;;0.87;73.46
72118;BME280;59992;47.490;8.736;2023-01-26T13:07:58;96733.11;;;0.84;73.55
72118;BME280;59992;47.490;8.736;2023-01-26T13:10:49;96732.65;;;0.82;73.49
72118;BME280;59992;47.490;8.736;2023-01-26T13:13:31;96730.21;;;0.81;73.72
72118;BME280;59992;47.490;8.736;2023-01-26T13:16:31;96720.98;;;0.81;73.86
72118;BME280;59992;47.490;8.736;2023-01-26T13:19:01;96720.20;;;0.83;73.99
72118;BME280;59992;47.490;8.736;2023-01-26T13:21:42;96718.18;;;0.83;73.76
72118;BME280;59992;47.490;8.736;2023-01-26T13:24:41;96718.84;;;0.83;73.70
72118;BME280;59992;47.490;8.736;2023-01-26T13:27:31;96721.92;;;0.83;74.53
72118;BME280;59992;47.490;8.736;2023-01-26T13:30:01;96717.98;;;0.86;74.35
72118;BME280;59992;47.490;8.736;2023-01-26T13:33:03;96715.52;;;0.90;74.04
72118;BME280;59992;47.490;8.736;2023-01-26T13:35:33;96717.33;;;0.91;73.85
72118;BME280;59992;47.490;8.736;2023-01-26T13:38:19;96717.98;;;0.85;73.85
72118;BME280;59992;47.490;8.736;2023-01-26T13:40:50;96712.44;;;0.83;74.07
72118;BME280;59992;47.490;8.736;2023-01-26T13:43:28;96709.30;;;0.80;74.22
72118;BME280;59992;47.490;8.736;2023-01-26T13:46:16;96712.46;;;0.79;74.38
72118;BME280;59992;47.490;8.736;2023-01-26T13:48:49;96709.98;;;0.77;74.37